createdAt,value
2022-10-13T00:00:59.571Z,10.63
2022-10-13T00:03:26.774Z,9.55
2022-10-13T00:05:53.910Z,10.52
2022-10-13T00:08:21.867Z,10.88
2022-10-13T00:10:50.401Z,10.45
2022-10-13T00:13:20.000Z,11.13
2022-10-13T00:15:47.670Z,10.15
2022-10-13T00:18:15.503Z,10.90
2022-10-13T00:20:43.582Z,10.13
2022-10-13T00:23:10.803Z,9.85
2022-10-13T00:25:41.295Z,8.80
2022-10-13T00:28:08.403Z,10.73
2022-10-13T00:30:35.935Z,10.50
2022-10-13T00:33:03.020Z,10.32
2022-10-13T00:35:30.153Z,10.40
2022-10-13T00:37:57.252Z,10.90
2022-10-13T00:40:28.455Z,10.90
2022-10-13T00:42:55.490Z,9.65
2022-10-13T00:45:27.081Z,9.60
2022-10-13T00:47:56.094Z,9.75
2022-10-13T00:50:32.678Z,10.52
2022-10-13T00:53:03.137Z,9.35
2022-10-13T00:55:31.707Z,8.70
2022-10-13T00:58:05.206Z,9.25
2022-10-13T01:00:34.374Z,11.45
2022-10-13T01:03:02.504Z,9.55
2022-10-13T01:05:30.359Z,9.95
2022-10-13T01:07:57.528Z,11.00
2022-10-13T01:10:44.856Z,11.20
2022-10-13T01:13:32.155Z,10.43
2022-10-13T01:16:16.471Z,9.05
2022-10-13T01:18:54.698Z,10.43
2022-10-13T01:21:24.469Z,10.07
2022-10-13T01:24:09.565Z,11.77
2022-10-13T01:26:42.969Z,9.02
2022-10-13T01:29:09.974Z,10.48
2022-10-13T01:31:47.278Z,11.30
2022-10-13T01:34:30.470Z,9.32
2022-10-13T01:37:05.930Z,10.45
2022-10-13T01:39:38.539Z,10.05
2022-10-13T01:42:12.866Z,9.40
2022-10-13T01:44:42.163Z,11.32
2022-10-13T01:47:11.050Z,10.55
2022-10-13T01:49:39.048Z,11.48
2022-10-13T01:52:08.140Z,8.07
2022-10-13T01:54:35.472Z,8.82
2022-10-13T01:57:02.578Z,10.30
2022-10-13T01:59:30.645Z,10.27
2022-10-13T02:02:29.114Z,10.98
2022-10-13T02:05:11.725Z,11.15
2022-10-13T02:07:41.831Z,11.95
2022-10-13T02:10:09.485Z,11.40
2022-10-13T02:12:42.572Z,10.80
2022-10-13T02:15:12.902Z,9.88
2022-10-13T02:20:07.291Z,9.82
2022-10-13T02:22:38.940Z,10.73
2022-10-13T02:25:06.461Z,11.00
2022-10-13T02:27:33.573Z,8.27
2022-10-13T02:30:00.774Z,9.30
2022-10-13T02:32:29.850Z,10.70
2022-10-13T02:34:56.928Z,9.95
2022-10-13T02:37:25.569Z,9.05
2022-10-13T02:39:52.827Z,10.50
2022-10-13T02:42:20.366Z,11.48
2022-10-13T02:44:47.506Z,9.80
2022-10-13T02:47:14.585Z,11.02
2022-10-13T02:49:41.631Z,12.20
2022-10-13T02:52:08.754Z,11.27
2022-10-13T02:54:42.175Z,11.85
2022-10-13T02:57:09.196Z,10.63
2022-10-13T02:59:36.276Z,10.77
2022-10-13T03:02:03.001Z,11.52
2022-10-13T03:04:30.399Z,11.10
2022-10-13T03:06:59.450Z,11.63
2022-10-13T03:09:26.512Z,10.50
2022-10-13T03:11:53.560Z,10.68
2022-10-13T03:14:20.993Z,11.15
2022-10-13T03:16:48.071Z,10.35
2022-10-13T03:19:15.300Z,10.68
2022-10-13T03:21:42.563Z,10.15
2022-10-13T03:24:09.714Z,10.77
2022-10-13T03:26:36.759Z,9.15
2022-10-13T03:29:03.834Z,11.93
2022-10-13T03:31:31.025Z,11.20
2022-10-13T03:34:02.435Z,11.07
2022-10-13T03:36:29.071Z,10.98
2022-10-13T03:38:56.110Z,11.05
2022-10-13T03:41:23.158Z,10.75
2022-10-13T03:43:51.055Z,11.38
2022-10-13T03:46:19.103Z,12.13
2022-10-13T03:48:47.542Z,10.15
2022-10-13T03:51:15.942Z,11.15
2022-10-13T03:53:45.757Z,10.65
2022-10-13T03:56:17.414Z,9.15
2022-10-13T03:58:54.043Z,9.75
2022-10-13T04:01:22.370Z,11.18
2022-10-13T04:03:50.306Z,10.48
2022-10-13T04:06:17.699Z,10.25
2022-10-13T04:08:44.870Z,11.18
2022-10-13T04:11:13.294Z,10.48
2022-10-13T04:13:42.109Z,11.50
2022-10-13T04:16:11.799Z,11.43
2022-10-13T04:18:42.398Z,11.05
2022-10-13T04:21:12.811Z,11.05
2022-10-13T04:23:39.830Z,10.98
2022-10-13T04:26:07.220Z,8.68
2022-10-13T04:28:35.871Z,12.60
2022-10-13T04:31:03.841Z,11.70
2022-10-13T04:33:31.422Z,11.77
2022-10-13T04:35:58.655Z,11.95
2022-10-13T04:38:25.732Z,10.45
2022-10-13T04:40:52.780Z,10.18
2022-10-13T04:43:19.880Z,9.90
2022-10-13T04:45:48.539Z,11.80
2022-10-13T04:48:15.611Z,11.25
2022-10-13T04:50:42.763Z,11.10
2022-10-13T04:53:09.805Z,11.48
2022-10-13T04:55:37.366Z,11.85
2022-10-13T04:58:04.492Z,11.48
2022-10-13T05:00:31.606Z,11.30
2022-10-13T05:02:58.268Z,10.80
2022-10-13T05:05:25.374Z,11.43
2022-10-13T05:07:52.447Z,9.35
2022-10-13T05:10:19.787Z,9.05
2022-10-13T05:12:46.847Z,10.45
2022-10-13T05:15:13.983Z,10.70
2022-10-13T05:17:41.048Z,11.82
2022-10-13T05:20:11.560Z,11.20
2022-10-13T05:22:39.523Z,9.60
2022-10-13T05:25:06.874Z,10.30
2022-10-13T05:27:33.923Z,11.85
2022-10-13T05:30:04.651Z,10.27
2022-10-13T05:32:31.730Z,9.55
2022-10-13T05:34:58.835Z,11.18
2022-10-13T05:37:25.876Z,9.45
2022-10-13T05:39:53.762Z,10.48
2022-10-13T05:42:20.996Z,11.35
2022-10-13T05:44:48.359Z,11.65
2022-10-13T05:47:15.419Z,11.35
2022-10-13T05:49:42.499Z,12.43
2022-10-13T05:52:12.427Z,11.60
2022-10-13T05:54:42.548Z,10.70
2022-10-13T05:57:28.312Z,11.57
2022-10-13T06:00:03.639Z,10.20
2022-10-13T06:02:44.214Z,11.63
2022-10-13T06:05:16.332Z,12.27
2022-10-13T06:07:44.029Z,10.80
2022-10-13T06:10:11.734Z,12.15
2022-10-13T06:12:39.092Z,13.07
2022-10-13T06:15:06.357Z,11.45
2022-10-13T06:17:36.106Z,12.15
2022-10-13T06:20:05.427Z,12.50
2022-10-13T06:22:33.338Z,11.13
2022-10-13T06:25:00.750Z,12.50
2022-10-13T06:27:29.719Z,11.70
2022-10-13T06:29:57.519Z,13.70
2022-10-13T06:32:25.095Z,12.48
2022-10-13T06:34:51.688Z,12.95
2022-10-13T06:37:21.200Z,13.15
2022-10-13T06:39:51.866Z,12.23
2022-10-13T06:42:19.174Z,12.57
2022-10-13T06:44:48.106Z,8.18
2022-10-13T06:47:15.148Z,12.95
2022-10-13T06:49:42.243Z,11.80
2022-10-13T06:52:13.259Z,13.40
2022-10-13T06:54:40.847Z,12.82
2022-10-13T06:57:07.927Z,13.45
2022-10-13T06:59:35.150Z,12.02
2022-10-13T07:02:02.262Z,11.95
2022-10-13T07:04:29.428Z,12.82
2022-10-13T07:06:58.183Z,13.57
2022-10-13T07:09:25.223Z,11.65
2022-10-13T07:11:52.544Z,11.88
2022-10-13T07:14:19.844Z,14.07
2022-10-13T07:16:48.432Z,10.90
2022-10-13T07:19:15.467Z,15.00
2022-10-13T07:21:43.484Z,12.80
2022-10-13T07:24:11.796Z,14.70
2022-10-13T07:26:38.871Z,15.63
2022-10-13T07:29:06.133Z,16.27
2022-10-13T07:31:33.204Z,13.32
2022-10-13T07:34:01.014Z,14.93
2022-10-13T07:36:28.926Z,14.38
2022-10-13T07:38:56.001Z,16.50
2022-10-13T07:41:23.142Z,15.82
2022-10-13T07:43:54.754Z,15.98
2022-10-13T07:46:22.297Z,13.00
2022-10-13T07:48:49.058Z,14.65
2022-10-13T07:51:15.881Z,16.42
2022-10-13T07:53:43.221Z,17.35
2022-10-13T07:56:11.815Z,18.63
2022-10-13T07:58:39.940Z,16.40
2022-10-13T08:01:09.701Z,18.20
2022-10-13T08:03:40.187Z,15.32
2022-10-13T08:06:09.235Z,15.60
2022-10-13T08:08:36.710Z,13.10
2022-10-13T08:11:04.656Z,16.27
2022-10-13T08:13:32.144Z,15.00
2022-10-13T08:16:06.221Z,16.23
2022-10-13T08:18:32.958Z,9.93
2022-10-13T08:21:23.946Z,16.83
2022-10-13T08:23:48.585Z,16.98
2022-10-13T08:26:24.061Z,16.00
2022-10-13T08:29:09.635Z,14.88
2022-10-13T08:31:38.764Z,15.40
2022-10-13T08:34:06.059Z,16.10
2022-10-13T08:36:32.832Z,15.77
2022-10-13T08:38:59.857Z,15.80
2022-10-13T08:41:48.275Z,15.80
2022-10-13T08:47:19.153Z,9.40
2022-10-13T08:49:46.281Z,13.55
2022-10-13T08:52:21.717Z,10.93
2022-10-13T08:54:50.171Z,11.15
2022-10-13T08:57:17.584Z,13.38
2022-10-13T08:59:44.685Z,10.32
2022-10-13T09:02:14.656Z,12.80
2022-10-13T09:04:44.022Z,9.35
2022-10-13T09:07:18.365Z,11.68
2022-10-13T09:09:45.739Z,10.38
2022-10-13T09:12:14.174Z,15.35
2022-10-13T09:14:41.474Z,13.20
2022-10-13T09:17:26.335Z,11.60
2022-10-13T09:20:03.636Z,9.82
2022-10-13T09:22:34.398Z,11.25
2022-10-13T09:25:07.165Z,11.90
2022-10-13T09:27:42.416Z,12.88
2022-10-13T09:30:25.514Z,13.63
2022-10-13T09:32:59.665Z,12.93
2022-10-13T09:35:26.880Z,10.95
2022-10-13T09:38:11.536Z,9.30
2022-10-13T09:40:40.641Z,8.45
2022-10-13T09:43:20.739Z,13.80
2022-10-13T09:45:47.886Z,10.82
2022-10-13T09:48:22.692Z,14.13
2022-10-13T09:50:55.439Z,12.18
2022-10-13T09:53:39.855Z,15.05
2022-10-13T09:56:36.194Z,14.95
2022-10-13T09:59:37.759Z,14.75
2022-10-13T10:02:22.385Z,14.88
2022-10-13T10:04:53.356Z,9.55
2022-10-13T10:07:25.360Z,10.88
2022-10-13T10:09:58.207Z,10.57
2022-10-13T10:12:30.701Z,11.95
2022-10-13T10:14:57.917Z,12.57
2022-10-13T10:17:40.381Z,11.70
2022-10-13T10:20:28.718Z,13.68
2022-10-13T10:23:26.611Z,11.23
2022-10-13T10:26:32.730Z,11.48
2022-10-13T10:29:14.641Z,12.82
2022-10-13T10:32:02.951Z,12.63
2022-10-13T10:34:42.340Z,12.95
2022-10-13T10:37:09.371Z,12.45
2022-10-13T10:39:36.385Z,9.43
2022-10-13T10:42:51.826Z,12.48
2022-10-13T10:45:24.714Z,11.02
2022-10-13T10:47:56.710Z,9.98
2022-10-13T10:50:24.679Z,11.20
2022-10-13T10:53:07.171Z,12.00
2022-10-13T10:58:39.683Z,10.65
2022-10-13T11:01:22.557Z,10.52
2022-10-13T11:03:49.637Z,9.27
2022-10-13T11:06:16.659Z,6.60
2022-10-13T11:08:49.166Z,8.70
2022-10-13T11:11:26.737Z,8.15
2022-10-13T11:13:55.114Z,9.32
2022-10-13T11:16:37.866Z,9.77
2022-10-13T11:19:35.920Z,9.55
2022-10-13T11:22:02.505Z,9.48
2022-10-13T11:24:36.446Z,7.63
2022-10-13T11:27:09.094Z,9.13
2022-10-13T11:32:27.340Z,10.50
2022-10-13T11:35:21.685Z,10.13
2022-10-13T11:38:06.798Z,8.88
2022-10-13T11:41:00.373Z,9.98
2022-10-13T11:43:55.111Z,11.60
2022-10-13T11:46:51.115Z,11.07
2022-10-13T11:49:52.564Z,11.38
2022-10-13T11:52:19.825Z,12.63
2022-10-13T11:55:02.720Z,11.10
2022-10-13T11:57:32.642Z,11.48
2022-10-13T12:00:01.882Z,12.40
2022-10-13T12:02:49.244Z,12.45
2022-10-13T12:05:29.353Z,13.00
2022-10-13T12:08:03.072Z,12.50
2022-10-13T12:10:32.976Z,13.60
2022-10-13T12:15:40.980Z,11.23
2022-10-13T12:18:33.916Z,12.23
2022-10-13T12:21:22.423Z,13.68
2022-10-13T12:23:51.444Z,11.73
2022-10-13T12:26:21.215Z,13.52
2022-10-13T12:29:04.513Z,13.75
2022-10-13T12:31:44.053Z,13.15
2022-10-13T12:34:21.490Z,12.68
2022-10-13T12:37:00.094Z,12.95
2022-10-13T12:39:29.428Z,12.00
2022-10-13T12:41:57.933Z,11.98
2022-10-13T12:44:27.554Z,12.70
2022-10-13T12:46:58.909Z,12.20
2022-10-13T12:49:31.412Z,11.55
2022-10-13T12:52:07.297Z,12.98
2022-10-13T12:54:37.743Z,11.45
2022-10-13T12:57:06.533Z,13.32
2022-10-13T12:59:34.516Z,13.88
2022-10-13T13:02:04.006Z,12.43
2022-10-13T13:04:40.291Z,13.27
2022-10-13T13:10:04.027Z,11.43
2022-10-13T13:12:31.266Z,12.05
2022-10-13T13:14:58.612Z,8.57
2022-10-13T13:17:57.921Z,10.85
2022-10-13T13:20:32.263Z,11.45
2022-10-13T13:22:59.407Z,10.98
2022-10-13T13:25:26.467Z,11.13
2022-10-13T13:27:53.758Z,10.23
2022-10-13T13:30:22.667Z,11.35
2022-10-13T13:32:50.300Z,10.90
2022-10-13T13:35:18.384Z,10.55
2022-10-13T13:37:52.799Z,11.07
2022-10-13T13:40:27.956Z,10.20
2022-10-13T13:42:55.221Z,10.93
2022-10-13T13:45:25.608Z,8.30
2022-10-13T13:47:57.973Z,7.68
2022-10-13T13:50:35.628Z,10.52
2022-10-13T13:53:03.618Z,11.57
2022-10-13T13:55:30.850Z,11.65
2022-10-13T13:57:58.396Z,8.70
2022-10-13T14:00:25.153Z,10.75
2022-10-13T14:02:56.267Z,11.30
2022-10-13T14:05:23.682Z,11.00
2022-10-13T14:07:53.537Z,11.25
2022-10-13T14:10:20.617Z,10.88
2022-10-13T14:12:47.843Z,10.55
2022-10-13T14:15:14.895Z,11.77
2022-10-13T14:17:41.971Z,11.80
2022-10-13T14:20:09.266Z,10.73
2022-10-13T14:22:38.873Z,11.43
2022-10-13T14:25:09.228Z,10.15
2022-10-13T14:27:37.011Z,11.25
2022-10-13T14:30:06.420Z,12.50
2022-10-13T14:32:34.047Z,12.52
2022-10-13T14:35:01.123Z,11.65
2022-10-13T14:37:33.078Z,12.85
2022-10-13T14:40:00.880Z,11.00
2022-10-13T14:42:29.581Z,13.15
2022-10-13T14:44:56.844Z,12.20
2022-10-13T14:47:24.127Z,11.95
2022-10-13T14:49:51.251Z,12.23
2022-10-13T14:52:18.323Z,12.02
2022-10-13T14:54:45.344Z,12.65
2022-10-13T14:57:15.788Z,13.43
2022-10-13T14:59:42.841Z,12.27
2022-10-13T15:02:10.977Z,12.23
2022-10-13T15:04:37.852Z,11.85
2022-10-13T15:07:04.856Z,12.73
2022-10-13T15:09:52.345Z,11.80
2022-10-13T15:12:23.427Z,12.77
2022-10-13T15:14:50.622Z,11.75
2022-10-13T15:17:17.742Z,11.82
2022-10-13T15:19:44.494Z,12.98
2022-10-13T15:22:11.803Z,11.95
2022-10-13T15:24:38.832Z,12.20
2022-10-13T15:27:05.857Z,13.63
2022-10-13T15:29:32.496Z,12.50
2022-10-13T15:32:09.311Z,12.90
2022-10-13T15:34:36.434Z,12.75
2022-10-13T15:37:03.526Z,13.32
2022-10-13T15:39:30.634Z,14.00
2022-10-13T15:41:57.312Z,13.38
2022-10-13T15:44:27.545Z,12.50
2022-10-13T15:47:07.433Z,12.82
2022-10-13T15:49:39.674Z,13.68
2022-10-13T15:52:06.455Z,13.15
2022-10-13T15:54:35.672Z,13.05
2022-10-13T15:57:02.746Z,12.88
2022-10-13T15:59:29.812Z,13.18
2022-10-13T16:01:57.143Z,13.43
2022-10-13T16:04:24.221Z,13.05
2022-10-13T16:06:51.284Z,13.32
2022-10-13T16:09:18.332Z,14.60
2022-10-13T16:11:45.372Z,14.02
2022-10-13T16:14:12.498Z,10.45
2022-10-13T16:16:39.621Z,13.15
2022-10-13T16:19:08.016Z,11.15
2022-10-13T16:21:34.735Z,12.30
2022-10-13T16:24:04.911Z,12.32
2022-10-13T16:26:31.956Z,13.88
2022-10-13T16:28:59.031Z,13.07
2022-10-13T16:31:25.967Z,14.45
2022-10-13T16:33:53.239Z,14.32
2022-10-13T16:36:20.665Z,14.25
2022-10-13T16:38:52.313Z,15.10
2022-10-13T16:41:19.671Z,15.82
2022-10-13T16:43:47.891Z,13.65
2022-10-13T16:46:16.485Z,11.90
2022-10-13T16:48:44.719Z,13.63
2022-10-13T16:51:23.518Z,12.63
2022-10-13T16:53:52.508Z,13.65
2022-10-13T16:56:22.810Z,12.95
2022-10-13T16:58:52.413Z,12.75
2022-10-13T17:01:19.804Z,13.02
2022-10-13T17:03:47.621Z,13.13
2022-10-13T17:06:15.154Z,13.35
2022-10-13T17:08:42.743Z,14.35
2022-10-13T17:11:14.982Z,13.38
2022-10-13T17:13:42.030Z,13.77
2022-10-13T17:16:09.076Z,12.10
2022-10-13T17:18:38.171Z,12.80
2022-10-13T17:21:09.007Z,12.82
2022-10-13T17:23:36.173Z,13.70
2022-10-13T17:26:09.647Z,12.68
2022-10-13T17:28:37.461Z,13.90
2022-10-13T17:31:18.667Z,13.13
2022-10-13T17:33:46.464Z,13.15
2022-10-13T17:36:19.633Z,12.93
2022-10-13T17:38:49.096Z,12.45
2022-10-13T17:41:16.521Z,12.07
2022-10-13T17:43:51.728Z,11.05
2022-10-13T17:46:36.130Z,10.63
2022-10-13T17:49:04.592Z,10.25
2022-10-13T17:51:31.490Z,10.48
2022-10-13T17:53:59.886Z,11.43
2022-10-13T17:56:27.569Z,11.25
2022-10-13T17:58:55.064Z,10.30
2022-10-13T18:01:28.128Z,11.23
2022-10-13T18:03:58.701Z,11.35
2022-10-13T18:06:36.913Z,13.85
2022-10-13T18:09:07.038Z,13.95
2022-10-13T18:11:34.888Z,14.57
2022-10-13T18:14:02.283Z,14.00
2022-10-13T18:16:29.366Z,12.85
2022-10-13T18:18:56.447Z,11.48
2022-10-13T18:21:27.525Z,10.45
2022-10-13T18:23:55.767Z,11.88
2022-10-13T18:26:23.077Z,11.73
2022-10-13T18:28:53.360Z,10.40
2022-10-13T18:31:28.831Z,9.50
2022-10-13T18:34:01.152Z,10.13
2022-10-13T18:36:31.309Z,10.32
2022-10-13T18:39:08.218Z,13.85
2022-10-13T18:41:36.334Z,11.15
2022-10-13T18:44:04.010Z,12.80
2022-10-13T18:46:31.458Z,14.40
2022-10-13T18:49:00.756Z,16.88
2022-10-13T18:51:33.373Z,12.82
2022-10-13T18:54:02.910Z,10.88
2022-10-13T18:56:30.856Z,11.40
2022-10-13T18:59:00.105Z,12.55
2022-10-13T19:01:30.654Z,11.50
2022-10-13T19:03:58.136Z,11.18
2022-10-13T19:06:26.836Z,11.15
2022-10-13T19:09:00.545Z,11.52
2022-10-13T19:11:28.673Z,11.85
2022-10-13T19:13:55.816Z,11.25
2022-10-13T19:16:24.234Z,11.95
2022-10-13T19:18:51.943Z,12.27
2022-10-13T19:21:19.561Z,15.27
2022-10-13T19:23:46.616Z,13.50
2022-10-13T19:26:21.170Z,14.20
2022-10-13T19:28:48.337Z,16.33
2022-10-13T19:31:17.314Z,18.80
2022-10-13T19:33:46.952Z,28.13
2022-10-13T19:36:22.304Z,33.20
2022-10-13T19:38:50.292Z,35.83
2022-10-13T19:41:17.773Z,25.33
2022-10-13T19:43:44.833Z,16.77
2022-10-13T19:46:12.147Z,17.42
2022-10-13T19:48:39.239Z,17.17
2022-10-13T19:51:07.066Z,17.17
2022-10-13T19:53:34.744Z,16.58
2022-10-13T19:56:01.789Z,16.40
2022-10-13T19:58:28.916Z,16.10
2022-10-13T20:00:56.177Z,16.70
2022-10-13T20:03:24.599Z,16.60
2022-10-13T20:05:51.711Z,15.27
2022-10-13T20:08:18.860Z,17.13
2022-10-13T20:10:46.192Z,16.23
2022-10-13T20:13:13.298Z,17.15
2022-10-13T20:15:43.869Z,17.08
2022-10-13T20:18:12.997Z,18.40
2022-10-13T20:20:40.880Z,19.20
2022-10-13T20:23:08.486Z,20.13
2022-10-13T20:25:38.947Z,18.23
2022-10-13T20:28:06.786Z,18.85
2022-10-13T20:30:34.190Z,19.80
2022-10-13T20:33:01.383Z,22.48
2022-10-13T20:35:28.500Z,17.67
2022-10-13T20:37:58.238Z,17.42
2022-10-13T20:40:25.320Z,15.73
2022-10-13T20:42:53.076Z,17.08
2022-10-13T20:45:20.550Z,18.23
2022-10-13T20:47:48.611Z,15.25
2022-10-13T20:50:15.720Z,15.23
2022-10-13T20:52:42.798Z,14.30
2022-10-13T20:55:09.917Z,15.65
2022-10-13T20:57:37.302Z,13.98
2022-10-13T21:00:05.402Z,13.43
2022-10-13T21:02:32.544Z,13.48
2022-10-13T21:04:59.599Z,14.50
2022-10-13T21:07:28.380Z,14.38
2022-10-13T21:09:55.463Z,14.30
2022-10-13T21:12:22.580Z,14.75
2022-10-13T21:14:52.150Z,15.15
2022-10-13T21:17:19.495Z,17.50
2022-10-13T21:19:46.855Z,17.05
2022-10-13T21:22:13.893Z,15.93
2022-10-13T21:24:41.148Z,16.48
2022-10-13T21:27:08.206Z,15.27
2022-10-13T21:29:35.251Z,16.88
2022-10-13T21:32:02.270Z,14.88
2022-10-13T21:34:29.557Z,16.05
2022-10-13T21:36:56.623Z,16.08
2022-10-13T21:39:23.733Z,15.73
2022-10-13T21:41:50.772Z,14.90
2022-10-13T21:44:17.819Z,15.35
2022-10-13T21:46:45.719Z,16.17
2022-10-13T21:49:12.761Z,15.52
2022-10-13T21:51:40.567Z,14.40
2022-10-13T21:54:12.658Z,14.13
2022-10-13T21:56:40.114Z,14.70
2022-10-13T21:59:07.463Z,14.52
2022-10-13T22:01:34.593Z,16.42
2022-10-13T22:04:04.055Z,16.13
2022-10-13T22:06:32.325Z,16.35
2022-10-13T22:09:00.209Z,15.05
2022-10-13T22:11:31.360Z,14.93
2022-10-13T22:13:58.657Z,15.02
2022-10-13T22:16:27.408Z,14.75
2022-10-13T22:18:57.368Z,13.25
2022-10-13T22:21:26.805Z,14.20
2022-10-13T22:23:56.735Z,13.65
2022-10-13T22:26:24.051Z,13.35
2022-10-13T22:28:51.786Z,13.68
2022-10-13T22:31:18.804Z,14.18
2022-10-13T22:33:46.263Z,13.85
2022-10-13T22:36:17.868Z,12.80
2022-10-13T22:38:45.670Z,14.30
2022-10-13T22:41:14.450Z,12.00
2022-10-13T22:43:43.998Z,15.23
2022-10-13T22:46:18.310Z,16.35
2022-10-13T22:48:45.469Z,17.33
2022-10-13T22:51:15.472Z,15.55
2022-10-13T22:53:42.779Z,15.73
2022-10-13T22:56:10.807Z,16.10
2022-10-13T22:58:38.283Z,16.38
2022-10-13T23:01:13.171Z,15.60
2022-10-13T23:03:40.630Z,15.82
2022-10-13T23:06:08.724Z,14.82
2022-10-13T23:08:35.978Z,15.38
2022-10-13T23:11:03.203Z,14.98
2022-10-13T23:13:30.291Z,15.48
2022-10-13T23:16:05.383Z,16.27
2022-10-13T23:18:34.658Z,14.60
2022-10-13T23:21:08.335Z,16.02
2022-10-13T23:23:35.695Z,15.65
2022-10-13T23:26:06.384Z,14.48
2022-10-13T23:28:33.674Z,16.25
2022-10-13T23:31:05.491Z,18.70
2022-10-13T23:33:32.635Z,15.63
2022-10-13T23:36:00.905Z,14.60
2022-10-13T23:38:29.327Z,18.35
2022-10-13T23:40:56.623Z,15.73
2022-10-13T23:43:23.691Z,15.07
2022-10-13T23:45:50.736Z,14.35
2022-10-13T23:48:17.795Z,17.33
2022-10-13T23:50:44.950Z,15.82
2022-10-13T23:53:11.987Z,16.88
2022-10-13T23:55:39.708Z,16.83
2022-10-13T23:58:07.001Z,14.32
